Terminal Aerodrome Forecast
Issued by NWS Duluth, MN

Home | Current Version | Previous Version | Text Only | Print | Product List | Glossary On
Versions: 1 2 3 4 5 6 7 8 9 10 11 12 13 14 15 16 17 18 19 20 21 22 23 24
320
FTUS43 KDLH 202339
TAFDLH
TAF
KDLH 202339Z 2100/2124 08017G25KT 6SM -RA BKN035 OVC050
      TEMPO 2100/2103 3SM -RA BR OVC030
     FM210300 08015G23KT 3SM -RA BKN012 OVC028
     FM211000 08014KT 1 1/2SM -SHRA OVC003
     FM211400 05008KT 3SM -DZ BR OVC003
     FM212000 30011KT 5SM -SHRA BR BKN006 OVC015=

USA.gov is the U.S. government's official web portal to all federal, state and local government web resources and services.